MyMeetScores TOP 100 TOP TEAMS UPCOMING MEETS COMPLETED MEETS LATEST MEETS ADD SCORES SUPPORT SHOP
Pretty in PinkShop@
MyMeetScores
 
Maegen Lynch, St. Charles Gymnastics Academy - MyMeetScores.com
Maegen Lynch
St. Charles Gymnastics Academy
Personal Bests
Level Vault Bars Beam Floor AA
3 9.400 8.850 9.050 8.800 34.725
4 8.875 8.875 9.550 9.225 35.850
5 8.050 7.850 8.800 8.700 33.400
6 8.800 8.950 9.325 9.550 35.950
Meet Scores
Date Meet Team Session Level Division Vault Bars Beam Floor AA
2023-01-13 St Jude Benefit Meet St. Charles Gymnastics Academy 8B 6 Sr 8.800 12 8.750 12 8.500 18T 9.150 8T 35.200 10
2022-12-09 St Nick Invite St. Charles Gymnastics Academy 1A 6 SrB 8.650 6T 8.800 7 8.375 9 8.900 11 34.725 9
2022-04-01 Level 6-7-8 State 2022 St. Charles Gymnastics Academy 10 6 Jr A 8.600 24 8.150 22 8.625 22 9.550 8T 34.925 22
2022-02-18 BIG Classic 2022 St. Charles Gymnastics Academy 8A 6 Junior C 8.300 11 8.500 9 8.450 11T 9.300 6T 34.550 11
2022-02-11 SCGA Classic 2022 St. Charles Gymnastics Academy F1 6 Jr B 8.775 14 8.375 13 9.325 5T 9.475 4T 35.950 9
2022-01-21 King Arthur Invitational 2022 St. Charles Gymnastics Academy 3 6 Jr B 8.050 16 8.875 5 9.125 6 9.400 5 35.450 8
2022-01-07 St Jude Benefit Meet 2022 St. Charles Gymnastics Academy 7B 6 Jr B 8.400 10 8.425 9 8.600 7 9.550 1 34.975 9
2021-04-15 Illinois level 6 & Xcel Silver State Champion St. Charles Gymnastics Academy 06 6 Multiple 8.100 56T 7.800 57T 9.050 46T 9.225 48T 34.175 58
2021-03-12 LUCKY INVITATIONAL St. Charles Gymnastics Academy A02 6 Jr A 7.800 21 8.950 14 8.425 20 9.175 17 34.350 19
2021-02-19 BIG Classic 2021 St. Charles Gymnastics Academy 1B 6 Child A 8.000 12 8.175 11T 8.225 13 9.075 11 33.475 13
2021-01-21 King Arthur Invitational St. Charles Gymnastics Academy 4 6 CH 8.425 11 8.250 8T 9.250 7 8.825 9T 34.750 9
2020-12-17 St Nick II Optional St. Charles Gymnastics Academy 4 5 JrA 8.050 10T 7.850 7 8.800 7* 8.700 9 33.400 8T
2020-03-06 Illinois Level 4 State Championships St. Charles Gymnastics Academy 3 4 Youth C 8.875 14T 8.875 16 9.550 3 8.550 25 35.850 12T
2020-02-21 Great Western Invitational - Women's St. Charles Gymnastics Academy 05 4 Filly 8.450 9T 7.100 19 9.525 4 9.225 5T 34.300 12
2020-02-14 Big Classic St. Charles Gymnastics Academy 3B 4 Child C 7.750 31T 8.550 34 9.325 26 9.075 16T 34.700 23T
2020-02-07 SCGA Classic St. Charles Gymnastics Academy 4 4 Jr A 8.325 6T 8.700 6 9.350 7T 9.000 5 35.375 7T
2020-01-24 King Arthur Invitational St. Charles Gymnastics Academy 1 4 Jr C 8.200 13 8.725 10 9.325 5T 8.925 10T 35.175 11
2020-01-10 St Jude Benefit Meet St. Charles Gymnastics Academy 3A 4 Jr B 8.700 7 8.575 10 9.000 4 9.100 4 35.375 6
2019-12-13 2019 St Nick St. Charles Gymnastics Academy 6B 4 JrB 8.425 12 7.750 14 8.950 6 9.100 8T 34.225 12
2019-03-22 Illinois Gymnastics State Championships St. Charles Gymnastics Academy 8 4 Ch C 7.800 28 8.550 17T 9.050 19 8.700 26T 34.100 27
2019-02-15 Women's Midwest Open St. Charles Gymnastics Academy 15 4 Junior A 7.300 17* 8.025 15
2019-02-08 IGI Chicago Style 2019 St. Charles Gymnastics Academy 38 4 231 Lakeshore L4 A 8.300 16 7.900 21 9.000 13 8.050 21 33.250 20
2019-01-25 King Arthur Invitational St. Charles Gymnastics Academy 9 4 JR A 8.250 9 8.300 10 9.150 5T 8.550 14 34.250 8
2019-01-11 St Jude Benefit Meet St. Charles Gymnastics Academy 7A 4 Jr A 8.450 13 7.900 12 8.675 13 8.400 13 33.425 13
2018-12-07 St. Nick Invite 2018 St. Charles Gymnastics Academy 5A 4 JrA 7.675 18 8.250 14T 8.375 13 8.350 18 32.650 17
2018-02-23 Kinetic Classic St. Charles Gymnastics Academy 5 3 Younger 8.600 67T 8.850 66 8.550 67T 8.725 70 34.725 71T
2018-01-26 King Arthur Invitational St. Charles Gymnastics Academy 7 3 JRA 9.400 4T 8.200 11T 9.050 4 8.000 10T 34.650 9
2018-01-12 St Jude Benefit Meet St. Charles Gymnastics Academy 7A 3 JrA 9.300 4 7.950 9T 7.700 9T 8.800 8 33.750 10
2017-12-14 2017 Women's Hawaiian Pineapple Classic St. Charles Gymnastics Academy 4A 3 Age7U 9.000 8 6.700 15 8.050 9 7.700 15 31.450 14
2017-12-01 Ultimate Wish Classic St. Charles Gymnastics Academy 5 3 CH 9.000 9T 7.875 15 7.450 15 8.175 16 32.500 15
2017-11-17 SCGA Classic St. Charles Gymnastics Academy 1 3 Child 8.400 17 8.075 12 7.900 13 8.000 14 32.375 14